Aviation Digital Data Service (ADDS)

Output produced by METARs form (0531 UTC 19 March 2019)
found at http://www.aviationweather.gov/metar/data/
 
METAR text: VOMD 190500Z 00000KT 6000 SCT018 33/21 Q1013 NOSIG
Conditions at: VOMD (MADURAI , IN) observed 0500 UTC 19 March 2019
Temperature: 33.0°C (91°F)
Dewpoint: 21.0°C (70°F) [RH = 49%]
Pressure (altimeter): 29.91 inches Hg (1013.0 mb)
Winds: calm
Visibility: 4 miles ( 6 km)
Ceiling: at least 12,000 feet AGL
Clouds: scattered clouds at 1800 feet AGL
Weather: no significant weather observed at this time

METAR text: VOMD 190430Z 00000KT 6000 SCT018 32/21 Q1014 NOSIG
Conditions at: VOMD (MADURAI , IN) observed 0430 UTC 19 March 2019
Temperature: 32.0°C (90°F)
Dewpoint: 21.0°C (70°F) [RH = 52%]
Pressure (altimeter): 29.94 inches Hg (1014.0 mb)
Winds: calm
Visibility: 4 miles ( 6 km)
Ceiling: at least 12,000 feet AGL
Clouds: scattered clouds at 1800 feet AGL
Weather: no significant weather observed at this time

METAR text: VOMD 190400Z 00000KT 6000 SCT018 31/21 Q1014 NOSIG
Conditions at: VOMD (MADURAI , IN) observed 0400 UTC 19 March 2019
Temperature: 31.0°C (88°F)
Dewpoint: 21.0°C (70°F) [RH = 55%]
Pressure (altimeter): 29.94 inches Hg (1014.0 mb)
Winds: calm
Visibility: 4 miles ( 6 km)
Ceiling: at least 12,000 feet AGL
Clouds: scattered clouds at 1800 feet AGL
Weather: no significant weather observed at this time

METAR text: VOMD 190330Z 00000KT 6000 SCT018 30/21 Q1014 NOSIG
Conditions at: VOMD (MADURAI , IN) observed 0330 UTC 19 March 2019
Temperature: 30.0°C (86°F)
Dewpoint: 21.0°C (70°F) [RH = 59%]
Pressure (altimeter): 29.94 inches Hg (1014.0 mb)
Winds: calm
Visibility: 4 miles ( 6 km)
Ceiling: at least 12,000 feet AGL
Clouds: scattered clouds at 1800 feet AGL
Weather: no significant weather observed at this time

METAR text: VOMD 190300Z 00000KT 6000 FEW020 29/22 Q1014 NOSIG
Conditions at: VOMD (MADURAI , IN) observed 0300 UTC 19 March 2019
Temperature: 29.0°C (84°F)
Dewpoint: 22.0°C (72°F) [RH = 66%]
Pressure (altimeter): 29.94 inches Hg (1014.0 mb)
Winds: calm
Visibility: 4 miles ( 6 km)
Ceiling: at least 12,000 feet AGL
Clouds: few clouds at 2000 feet AGL
Weather: no significant weather observed at this time

METAR text: VOMD 190230Z 00000KT 6000 SCT018 28/22 Q1014 NOSIG
Conditions at: VOMD (MADURAI , IN) observed 0230 UTC 19 March 2019
Temperature: 28.0°C (82°F)
Dewpoint: 22.0°C (72°F) [RH = 70%]
Pressure (altimeter): 29.94 inches Hg (1014.0 mb)
Winds: calm
Visibility: 4 miles ( 6 km)
Ceiling: at least 12,000 feet AGL
Clouds: scattered clouds at 1800 feet AGL
Weather: no significant weather observed at this time

METAR text: VOMD 190200Z 00000KT 4000 HZ SCT018 27/22 Q1013 BECMG 6000
Conditions at: VOMD (MADURAI , IN) observed 0200 UTC 19 March 2019
Temperature: 27.0°C (81°F)
Dewpoint: 22.0°C (72°F) [RH = 74%]
Pressure (altimeter): 29.91 inches Hg (1013.0 mb)
Winds: calm
Visibility: 2.49 miles (4.01 km)
Ceiling: at least 12,000 feet AGL
Clouds: scattered clouds at 1800 feet AGL
Weather: HZ  (haze)

METAR text: VOMD 190130Z 00000KT 4000 HZ SCT018 SCT100 26/22 Q1013 BECMG 6000
Conditions at: VOMD (MADURAI , IN) observed 0130 UTC 19 March 2019
Temperature: 26.0°C (79°F)
Dewpoint: 22.0°C (72°F) [RH = 79%]
Pressure (altimeter): 29.91 inches Hg (1013.0 mb)
Winds: calm
Visibility: 2.49 miles (4.01 km)
Ceiling: at least 12,000 feet AGL
Clouds: scattered clouds at 1800 feet AGL
scattered clouds at 10000 feet AGL
Weather: HZ  (haze)

METAR text: VOMD 190100Z 00000KT 4000 HZ SCT018 SCT100 26/21 Q1012 NOSIG
Conditions at: VOMD (MADURAI , IN) observed 0100 UTC 19 March 2019
Temperature: 26.0°C (79°F)
Dewpoint: 21.0°C (70°F) [RH = 74%]
Pressure (altimeter): 29.88 inches Hg (1012.0 mb)
Winds: calm
Visibility: 2.49 miles (4.01 km)
Ceiling: at least 12,000 feet AGL
Clouds: scattered clouds at 1800 feet AGL
scattered clouds at 10000 feet AGL
Weather: HZ  (haze)

METAR text: VOMD 190030Z 00000KT 4000 HZ FEW018 26/21 Q1012 NOSIG
Conditions at: VOMD (MADURAI , IN) observed 0030 UTC 19 March 2019
Temperature: 26.0°C (79°F)
Dewpoint: 21.0°C (70°F) [RH = 74%]
Pressure (altimeter): 29.88 inches Hg (1012.0 mb)
Winds: calm
Visibility: 2.49 miles (4.01 km)
Ceiling: at least 12,000 feet AGL
Clouds: few clouds at 1800 feet AGL
Weather: HZ  (haze)

METAR text: VOMD 190000Z 00000KT 4000 HZ FEW018 25/21 Q1012 NOSIG
Conditions at: VOMD (MADURAI , IN) observed 0000 UTC 19 March 2019
Temperature: 25.0°C (77°F)
Dewpoint: 21.0°C (70°F) [RH = 79%]
Pressure (altimeter): 29.88 inches Hg (1012.0 mb)
Winds: calm
Visibility: 2.49 miles (4.01 km)
Ceiling: at least 12,000 feet AGL
Clouds: few clouds at 1800 feet AGL
Weather: HZ  (haze)

METAR text: VOMD 182300Z 00000KT 6000 FEW018 25/20 Q1012 TEMPO 4000 HZ
Conditions at: VOMD (MADURAI , IN) observed 2300 UTC 18 March 2019
Temperature: 25.0°C (77°F)
Dewpoint: 20.0°C (68°F) [RH = 74%]
Pressure (altimeter): 29.88 inches Hg (1012.0 mb)
Winds: calm
Visibility: 4 miles ( 6 km)
Ceiling: at least 12,000 feet AGL
Clouds: few clouds at 1800 feet AGL
Weather: no significant weather observed at this time

METAR text: VOMD 182200Z 00000KT 6000 SCT018 26/20 Q1012 NOSIG
Conditions at: VOMD (MADURAI , IN) observed 2200 UTC 18 March 2019
Temperature: 26.0°C (79°F)
Dewpoint: 20.0°C (68°F) [RH = 70%]
Pressure (altimeter): 29.88 inches Hg (1012.0 mb)
Winds: calm
Visibility: 4 miles ( 6 km)
Ceiling: at least 12,000 feet AGL
Clouds: scattered clouds at 1800 feet AGL
Weather: no significant weather observed at this time

METAR text: VOMD 182100Z 00000KT 6000 SCT018 SCT100 26/20 Q1012 NOSIG
Conditions at: VOMD (MADURAI , IN) observed 2100 UTC 18 March 2019
Temperature: 26.0°C (79°F)
Dewpoint: 20.0°C (68°F) [RH = 70%]
Pressure (altimeter): 29.88 inches Hg (1012.0 mb)
Winds: calm
Visibility: 4 miles ( 6 km)
Ceiling: at least 12,000 feet AGL
Clouds: scattered clouds at 1800 feet AGL
scattered clouds at 10000 feet AGL
Weather: no significant weather observed at this time

METAR text: VOMD 182000Z 00000KT 6000 SCT018 SCT100 27/19 Q1013 NOSIG
Conditions at: VOMD (MADURAI , IN) observed 2000 UTC 18 March 2019
Temperature: 27.0°C (81°F)
Dewpoint: 19.0°C (66°F) [RH = 62%]
Pressure (altimeter): 29.91 inches Hg (1013.0 mb)
Winds: calm
Visibility: 4 miles ( 6 km)
Ceiling: at least 12,000 feet AGL
Clouds: scattered clouds at 1800 feet AGL
scattered clouds at 10000 feet AGL
Weather: no significant weather observed at this time

METAR text: VOMD 181900Z 00000KT 6000 SCT018 SCT100 27/19 Q1014 NOSIG
Conditions at: VOMD (MADURAI , IN) observed 1900 UTC 18 March 2019
Temperature: 27.0°C (81°F)
Dewpoint: 19.0°C (66°F) [RH = 62%]
Pressure (altimeter): 29.94 inches Hg (1014.0 mb)
Winds: calm
Visibility: 4 miles ( 6 km)
Ceiling: at least 12,000 feet AGL
Clouds: scattered clouds at 1800 feet AGL
scattered clouds at 10000 feet AGL
Weather: no significant weather observed at this time

METAR text: VOMD 181800Z 00000KT 6000 FEW018 28/19 Q1014 NOSIG
Conditions at: VOMD (MADURAI , IN) observed 1800 UTC 18 March 2019
Temperature: 28.0°C (82°F)
Dewpoint: 19.0°C (66°F) [RH = 58%]
Pressure (altimeter): 29.94 inches Hg (1014.0 mb)
Winds: calm
Visibility: 4 miles ( 6 km)
Ceiling: at least 12,000 feet AGL
Clouds: few clouds at 1800 feet AGL
Weather: no significant weather observed at this time

METAR text: VOMD 181730Z 00000KT 6000 FEW018 29/18 Q1014 NOSIG
Conditions at: VOMD (MADURAI , IN) observed 1730 UTC 18 March 2019
Temperature: 29.0°C (84°F)
Dewpoint: 18.0°C (64°F) [RH = 52%]
Pressure (altimeter): 29.94 inches Hg (1014.0 mb)
Winds: calm
Visibility: 4 miles ( 6 km)
Ceiling: at least 12,000 feet AGL
Clouds: few clouds at 1800 feet AGL
Weather: no significant weather observed at this time

METAR text: VOMD 181700Z 00000KT 6000 FEW018 29/18 Q1014 NOSIG
Conditions at: VOMD (MADURAI , IN) observed 1700 UTC 18 March 2019
Temperature: 29.0°C (84°F)
Dewpoint: 18.0°C (64°F) [RH = 52%]
Pressure (altimeter): 29.94 inches Hg (1014.0 mb)
Winds: calm
Visibility: 4 miles ( 6 km)
Ceiling: at least 12,000 feet AGL
Clouds: few clouds at 1800 feet AGL
Weather: no significant weather observed at this time

METAR text: VOMD 181630Z 10006KT 6000 FEW018 30/17 Q1014 NOSIG
Conditions at: VOMD (MADURAI , IN) observed 1630 UTC 18 March 2019
Temperature: 30.0°C (86°F)
Dewpoint: 17.0°C (63°F) [RH = 46%]
Pressure (altimeter): 29.94 inches Hg (1014.0 mb)
Winds: from the E (100 degrees) at 7 MPH (6 knots; 3.1 m/s)
Visibility: 4 miles ( 6 km)
Ceiling: at least 12,000 feet AGL
Clouds: few clouds at 1800 feet AGL
Weather: no significant weather observed at this time

METAR text: VOMD 181600Z 09007KT 6000 FEW018 31/17 Q1014 NOSIG
Conditions at: VOMD (MADURAI , IN) observed 1600 UTC 18 March 2019
Temperature: 31.0°C (88°F)
Dewpoint: 17.0°C (63°F) [RH = 43%]
Pressure (altimeter): 29.94 inches Hg (1014.0 mb)
Winds: from the E (90 degrees) at 8 MPH (7 knots; 3.6 m/s)
Visibility: 4 miles ( 6 km)
Ceiling: at least 12,000 feet AGL
Clouds: few clouds at 1800 feet AGL
Weather: no significant weather observed at this time

METAR text: VOMD 181530Z 09008KT 6000 FEW018 32/18 Q1013 NOSIG
Conditions at: VOMD (MADURAI , IN) observed 1530 UTC 18 March 2019
Temperature: 32.0°C (90°F)
Dewpoint: 18.0°C (64°F) [RH = 43%]
Pressure (altimeter): 29.91 inches Hg (1013.0 mb)
Winds: from the E (90 degrees) at 9 MPH (8 knots; 4.1 m/s)
Visibility: 4 miles ( 6 km)
Ceiling: at least 12,000 feet AGL
Clouds: few clouds at 1800 feet AGL
Weather: no significant weather observed at this time

METAR text: VOMD 181430Z 09008KT 6000 FEW018 33/18 Q1012 NOSIG
Conditions at: VOMD (MADURAI , IN) observed 1430 UTC 18 March 2019
Temperature: 33.0°C (91°F)
Dewpoint: 18.0°C (64°F) [RH = 41%]
Pressure (altimeter): 29.88 inches Hg (1012.0 mb)
Winds: from the E (90 degrees) at 9 MPH (8 knots; 4.1 m/s)
Visibility: 4 miles ( 6 km)
Ceiling: at least 12,000 feet AGL
Clouds: few clouds at 1800 feet AGL
Weather: no significant weather observed at this time

METAR text: VOMD 181400Z 09008KT 6000 FEW018 33/18 Q1011 NOSIG
Conditions at: VOMD (MADURAI , IN) observed 1400 UTC 18 March 2019
Temperature: 33.0°C (91°F)
Dewpoint: 18.0°C (64°F) [RH = 41%]
Pressure (altimeter): 29.85 inches Hg (1011.0 mb)
Winds: from the E (90 degrees) at 9 MPH (8 knots; 4.1 m/s)
Visibility: 4 miles ( 6 km)
Ceiling: at least 12,000 feet AGL
Clouds: few clouds at 1800 feet AGL
Weather: no significant weather observed at this time

METAR text: VOMD 181330Z 09010KT 6000 FEW018 34/18 Q1011 NOSIG
Conditions at: VOMD (MADURAI , IN) observed 1330 UTC 18 March 2019
Temperature: 34.0°C (93°F)
Dewpoint: 18.0°C (64°F) [RH = 39%]
Pressure (altimeter): 29.85 inches Hg (1011.0 mb)
Winds: from the E (90 degrees) at 12 MPH (10 knots; 5.1 m/s)
Visibility: 4 miles ( 6 km)
Ceiling: at least 12,000 feet AGL
Clouds: few clouds at 1800 feet AGL
Weather: no significant weather observed at this time

METAR text: VOMD 181300Z 12008KT 6000 FEW018 35/19 Q1010 NOSIG
Conditions at: VOMD (MADURAI , IN) observed 1300 UTC 18 March 2019
Temperature: 35.0°C (95°F)
Dewpoint: 19.0°C (66°F) [RH = 39%]
Pressure (altimeter): 29.82 inches Hg (1010.0 mb)
Winds: from the ESE (120 degrees) at 9 MPH (8 knots; 4.1 m/s)
Visibility: 4 miles ( 6 km)
Ceiling: at least 12,000 feet AGL
Clouds: few clouds at 1800 feet AGL
Weather: no significant weather observed at this time

METAR text: VOMD 181230Z 09008KT 6000 FEW018 36/19 Q1010 NOSIG
Conditions at: VOMD (MADURAI , IN) observed 1230 UTC 18 March 2019
Temperature: 36.0°C (97°F)
Dewpoint: 19.0°C (66°F) [RH = 37%]
Pressure (altimeter): 29.82 inches Hg (1010.0 mb)
Winds: from the E (90 degrees) at 9 MPH (8 knots; 4.1 m/s)
Visibility: 4 miles ( 6 km)
Ceiling: at least 12,000 feet AGL
Clouds: few clouds at 1800 feet AGL
Weather: no significant weather observed at this time

METAR text: VOMD 181200Z 12006KT 6000 FEW018 36/19 Q1009 NOSIG
Conditions at: VOMD (MADURAI , IN) observed 1200 UTC 18 March 2019
Temperature: 36.0°C (97°F)
Dewpoint: 19.0°C (66°F) [RH = 37%]
Pressure (altimeter): 29.79 inches Hg (1009.0 mb)
Winds: from the ESE (120 degrees) at 7 MPH (6 knots; 3.1 m/s)
Visibility: 4 miles ( 6 km)
Ceiling: at least 12,000 feet AGL
Clouds: few clouds at 1800 feet AGL
Weather: no significant weather observed at this time

METAR text: VOMD 181130Z 12004KT 6000 FEW018 36/19 Q1009 NOSIG
Conditions at: VOMD (MADURAI , IN) observed 1130 UTC 18 March 2019
Temperature: 36.0°C (97°F)
Dewpoint: 19.0°C (66°F) [RH = 37%]
Pressure (altimeter): 29.79 inches Hg (1009.0 mb)
Winds: from the ESE (120 degrees) at 5 MPH (4 knots; 2.1 m/s)
Visibility: 4 miles ( 6 km)
Ceiling: at least 12,000 feet AGL
Clouds: few clouds at 1800 feet AGL
Weather: no significant weather observed at this time

METAR text: VOMD 181100Z 03005KT 6000 FEW018 37/18 Q1009 NOSIG
Conditions at: VOMD (MADURAI , IN) observed 1100 UTC 18 March 2019
Temperature: 37.0°C (99°F)
Dewpoint: 18.0°C (64°F) [RH = 33%]
Pressure (altimeter): 29.79 inches Hg (1009.0 mb)
Winds: from the NNE (30 degrees) at 6 MPH (5 knots; 2.6 m/s)
Visibility: 4 miles ( 6 km)
Ceiling: at least 12,000 feet AGL
Clouds: few clouds at 1800 feet AGL
Weather: no significant weather observed at this time

METAR text: VOMD 181030Z 00000KT 6000 FEW018 37/19 Q1009 NOSIG
Conditions at: VOMD (MADURAI , IN) observed 1030 UTC 18 March 2019
Temperature: 37.0°C (99°F)
Dewpoint: 19.0°C (66°F) [RH = 35%]
Pressure (altimeter): 29.79 inches Hg (1009.0 mb)
Winds: calm
Visibility: 4 miles ( 6 km)
Ceiling: at least 12,000 feet AGL
Clouds: few clouds at 1800 feet AGL
Weather: no significant weather observed at this time

METAR text: VOMD 181000Z 09003KT 7000 FEW018 37/19 Q1009 NOSIG
Conditions at: VOMD (MADURAI , IN) observed 1000 UTC 18 March 2019
Temperature: 37.0°C (99°F)
Dewpoint: 19.0°C (66°F) [RH = 35%]
Pressure (altimeter): 29.79 inches Hg (1009.0 mb)
Winds: from the E (90 degrees) at 3 MPH (3 knots; 1.5 m/s)
Visibility: 4 miles ( 7 km)
Ceiling: at least 12,000 feet AGL
Clouds: few clouds at 1800 feet AGL
Weather: no significant weather observed at this time

METAR text: VOMD 180930Z 00000KT 7000 FEW018 37/19 Q1010 NOSIG
Conditions at: VOMD (MADURAI , IN) observed 0930 UTC 18 March 2019
Temperature: 37.0°C (99°F)
Dewpoint: 19.0°C (66°F) [RH = 35%]
Pressure (altimeter): 29.82 inches Hg (1010.0 mb)
Winds: calm
Visibility: 4 miles ( 7 km)
Ceiling: at least 12,000 feet AGL
Clouds: few clouds at 1800 feet AGL
Weather: no significant weather observed at this time

METAR text: VOMD 180900Z 14008KT 7000 FEW018 37/19 Q1010 NOSIG
Conditions at: VOMD (MADURAI , IN) observed 0900 UTC 18 March 2019
Temperature: 37.0°C (99°F)
Dewpoint: 19.0°C (66°F) [RH = 35%]
Pressure (altimeter): 29.82 inches Hg (1010.0 mb)
Winds: from the SE (140 degrees) at 9 MPH (8 knots; 4.1 m/s)
Visibility: 4 miles ( 7 km)
Ceiling: at least 12,000 feet AGL
Clouds: few clouds at 1800 feet AGL
Weather: no significant weather observed at this time

METAR text: VOMD 180830Z 09004KT 7000 FEW018 37/19 Q1011 NOSIG
Conditions at: VOMD (MADURAI , IN) observed 0830 UTC 18 March 2019
Temperature: 37.0°C (99°F)
Dewpoint: 19.0°C (66°F) [RH = 35%]
Pressure (altimeter): 29.85 inches Hg (1011.0 mb)
Winds: from the E (90 degrees) at 5 MPH (4 knots; 2.1 m/s)
Visibility: 4 miles ( 7 km)
Ceiling: at least 12,000 feet AGL
Clouds: few clouds at 1800 feet AGL
Weather: no significant weather observed at this time

METAR text: VOMD 180800Z 05003KT 7000 FEW018 36/19 Q1011 NOSIG
Conditions at: VOMD (MADURAI , IN) observed 0800 UTC 18 March 2019
Temperature: 36.0°C (97°F)
Dewpoint: 19.0°C (66°F) [RH = 37%]
Pressure (altimeter): 29.85 inches Hg (1011.0 mb)
Winds: from the NE (50 degrees) at 3 MPH (3 knots; 1.5 m/s)
Visibility: 4 miles ( 7 km)
Ceiling: at least 12,000 feet AGL
Clouds: few clouds at 1800 feet AGL
Weather: no significant weather observed at this time

METAR text: VOMD 180730Z 04004KT 7000 FEW020 36/19 Q1012 NOSIG
Conditions at: VOMD (MADURAI , IN) observed 0730 UTC 18 March 2019
Temperature: 36.0°C (97°F)
Dewpoint: 19.0°C (66°F) [RH = 37%]
Pressure (altimeter): 29.88 inches Hg (1012.0 mb)
Winds: from the NE (40 degrees) at 5 MPH (4 knots; 2.1 m/s)
Visibility: 4 miles ( 7 km)
Ceiling: at least 12,000 feet AGL
Clouds: few clouds at 2000 feet AGL
Weather: no significant weather observed at this time

METAR text: VOMD 180700Z 09004KT 7000 FEW020 36/20 Q1013 NOSIG
Conditions at: VOMD (MADURAI , IN) observed 0700 UTC 18 March 2019
Temperature: 36.0°C (97°F)
Dewpoint: 20.0°C (68°F) [RH = 39%]
Pressure (altimeter): 29.91 inches Hg (1013.0 mb)
Winds: from the E (90 degrees) at 5 MPH (4 knots; 2.1 m/s)
Visibility: 4 miles ( 7 km)
Ceiling: at least 12,000 feet AGL
Clouds: few clouds at 2000 feet AGL
Weather: no significant weather observed at this time

METAR text: VOMD 180630Z 36004KT 7000 FEW020 35/20 Q1014 NOSIG
Conditions at: VOMD (MADURAI , IN) observed 0630 UTC 18 March 2019
Temperature: 35.0°C (95°F)
Dewpoint: 20.0°C (68°F) [RH = 42%]
Pressure (altimeter): 29.94 inches Hg (1014.0 mb)
Winds: from the N (360 degrees) at 5 MPH (4 knots; 2.1 m/s)
Visibility: 4 miles ( 7 km)
Ceiling: at least 12,000 feet AGL
Clouds: few clouds at 2000 feet AGL
Weather: no significant weather observed at this time

METAR text: VOMD 180600Z 36004KT 6000 FEW020 34/20 Q1014 NOSIG
Conditions at: VOMD (MADURAI , IN) observed 0600 UTC 18 March 2019
Temperature: 34.0°C (93°F)
Dewpoint: 20.0°C (68°F) [RH = 44%]
Pressure (altimeter): 29.94 inches Hg (1014.0 mb)
Winds: from the N (360 degrees) at 5 MPH (4 knots; 2.1 m/s)
Visibility: 4 miles ( 6 km)
Ceiling: at least 12,000 feet AGL
Clouds: few clouds at 2000 feet AGL
Weather: no significant weather observed at this time

METAR text: VOMD 180530Z 34004KT 6000 FEW020 34/21 Q1015 NOSIG
Conditions at: VOMD (MADURAI , IN) observed 0530 UTC 18 March 2019
Temperature: 34.0°C (93°F)
Dewpoint: 21.0°C (70°F) [RH = 47%]
Pressure (altimeter): 29.97 inches Hg (1015.0 mb)
Winds: from the NNW (340 degrees) at 5 MPH (4 knots; 2.1 m/s)
Visibility: 4 miles ( 6 km)
Ceiling: at least 12,000 feet AGL
Clouds: few clouds at 2000 feet AGL
Weather: no significant weather observed at this time

METAR text: VOMD 180500Z 34004KT 6000 FEW020 33/21 Q1015 NOSIG
Conditions at: VOMD (MADURAI , IN) observed 0500 UTC 18 March 2019
Temperature: 33.0°C (91°F)
Dewpoint: 21.0°C (70°F) [RH = 49%]
Pressure (altimeter): 29.97 inches Hg (1015.0 mb)
Winds: from the NNW (340 degrees) at 5 MPH (4 knots; 2.1 m/s)
Visibility: 4 miles ( 6 km)
Ceiling: at least 12,000 feet AGL
Clouds: few clouds at 2000 feet AGL
Weather: no significant weather observed at this time

METAR text: VOMD 180430Z 02003KT 6000 FEW020 32/21 Q1016 NOSIG
Conditions at: VOMD (MADURAI , IN) observed 0430 UTC 18 March 2019
Temperature: 32.0°C (90°F)
Dewpoint: 21.0°C (70°F) [RH = 52%]
Pressure (altimeter): 30.00 inches Hg (1016.0 mb)
Winds: from the NNE (20 degrees) at 3 MPH (3 knots; 1.5 m/s)
Visibility: 4 miles ( 6 km)
Ceiling: at least 12,000 feet AGL
Clouds: few clouds at 2000 feet AGL
Weather: no significant weather observed at this time

METAR text: VOMD 180400Z 05003KT 6000 FEW020 31/21 Q1016 NOSIG
Conditions at: VOMD (MADURAI , IN) observed 0400 UTC 18 March 2019
Temperature: 31.0°C (88°F)
Dewpoint: 21.0°C (70°F) [RH = 55%]
Pressure (altimeter): 30.00 inches Hg (1016.0 mb)
Winds: from the NE (50 degrees) at 3 MPH (3 knots; 1.5 m/s)
Visibility: 4 miles ( 6 km)
Ceiling: at least 12,000 feet AGL
Clouds: few clouds at 2000 feet AGL
Weather: no significant weather observed at this time

METAR text: VOMD 180330Z 05003KT 6000 FEW020 30/21 Q1016 NOSIG
Conditions at: VOMD (MADURAI , IN) observed 0330 UTC 18 March 2019
Temperature: 30.0°C (86°F)
Dewpoint: 21.0°C (70°F) [RH = 59%]
Pressure (altimeter): 30.00 inches Hg (1016.0 mb)
Winds: from the NE (50 degrees) at 3 MPH (3 knots; 1.5 m/s)
Visibility: 4 miles ( 6 km)
Ceiling: at least 12,000 feet AGL
Clouds: few clouds at 2000 feet AGL
Weather: no significant weather observed at this time

METAR text: VOMD 180300Z 36003KT 6000 FEW020 29/22 Q1015 NOSIG
Conditions at: VOMD (MADURAI , IN) observed 0300 UTC 18 March 2019
Temperature: 29.0°C (84°F)
Dewpoint: 22.0°C (72°F) [RH = 66%]
Pressure (altimeter): 29.97 inches Hg (1015.0 mb)
Winds: from the N (360 degrees) at 3 MPH (3 knots; 1.5 m/s)
Visibility: 4 miles ( 6 km)
Ceiling: at least 12,000 feet AGL
Clouds: few clouds at 2000 feet AGL
Weather: no significant weather observed at this time

METAR text: VOMD 180230Z 36003KT 6000 FEW020 27/20 Q1015 NOSIG
Conditions at: VOMD (MADURAI , IN) observed 0230 UTC 18 March 2019
Temperature: 27.0°C (81°F)
Dewpoint: 20.0°C (68°F) [RH = 66%]
Pressure (altimeter): 29.97 inches Hg (1015.0 mb)
Winds: from the N (360 degrees) at 3 MPH (3 knots; 1.5 m/s)
Visibility: 4 miles ( 6 km)
Ceiling: at least 12,000 feet AGL
Clouds: few clouds at 2000 feet AGL
Weather: no significant weather observed at this time

METAR text: VOMD 180200Z 00000KT 4000 HZ FEW018 26/20 Q1014 BECMG 6000
Conditions at: VOMD (MADURAI , IN) observed 0200 UTC 18 March 2019
Temperature: 26.0°C (79°F)
Dewpoint: 20.0°C (68°F) [RH = 70%]
Pressure (altimeter): 29.94 inches Hg (1014.0 mb)
Winds: calm
Visibility: 2.49 miles (4.01 km)
Ceiling: at least 12,000 feet AGL
Clouds: few clouds at 1800 feet AGL
Weather: HZ  (haze)

METAR text: VOMD 180130Z 00000KT 4000 HZ FEW018 26/20 Q1014 NOSIG
Conditions at: VOMD (MADURAI , IN) observed 0130 UTC 18 March 2019
Temperature: 26.0°C (79°F)
Dewpoint: 20.0°C (68°F) [RH = 70%]
Pressure (altimeter): 29.94 inches Hg (1014.0 mb)
Winds: calm
Visibility: 2.49 miles (4.01 km)
Ceiling: at least 12,000 feet AGL
Clouds: few clouds at 1800 feet AGL
Weather: HZ  (haze)

METAR text: VOMD 180100Z 00000KT 4000 HZ FEW018 25/20 Q1013 NOSIG
Conditions at: VOMD (MADURAI , IN) observed 0100 UTC 18 March 2019
Temperature: 25.0°C (77°F)
Dewpoint: 20.0°C (68°F) [RH = 74%]
Pressure (altimeter): 29.91 inches Hg (1013.0 mb)
Winds: calm
Visibility: 2.49 miles (4.01 km)
Ceiling: at least 12,000 feet AGL
Clouds: few clouds at 1800 feet AGL
Weather: HZ  (haze)

METAR text: VOMD 180030Z 00000KT 4000 HZ FEW018 25/20 Q1013 NOSIG
Conditions at: VOMD (MADURAI , IN) observed 0030 UTC 18 March 2019
Temperature: 25.0°C (77°F)
Dewpoint: 20.0°C (68°F) [RH = 74%]
Pressure (altimeter): 29.91 inches Hg (1013.0 mb)
Winds: calm
Visibility: 2.49 miles (4.01 km)
Ceiling: at least 12,000 feet AGL
Clouds: few clouds at 1800 feet AGL
Weather: HZ  (haze)

METAR text: VOMD 180000Z 00000KT 4000 HZ FEW018 25/20 Q1012 NOSIG
Conditions at: VOMD (MADURAI , IN) observed 0000 UTC 18 March 2019
Temperature: 25.0°C (77°F)
Dewpoint: 20.0°C (68°F) [RH = 74%]
Pressure (altimeter): 29.88 inches Hg (1012.0 mb)
Winds: calm
Visibility: 2.49 miles (4.01 km)
Ceiling: at least 12,000 feet AGL
Clouds: few clouds at 1800 feet AGL
Weather: HZ  (haze)

METAR text: VOMD 172300Z 00000KT 6000 FEW018 25/19 Q1012 NOSIG
Conditions at: VOMD (MADURAI , IN) observed 2300 UTC 17 March 2019
Temperature: 25.0°C (77°F)
Dewpoint: 19.0°C (66°F) [RH = 69%]
Pressure (altimeter): 29.88 inches Hg (1012.0 mb)
Winds: calm
Visibility: 4 miles ( 6 km)
Ceiling: at least 12,000 feet AGL
Clouds: few clouds at 1800 feet AGL
Weather: no significant weather observed at this time

METAR text: VOMD 172200Z 00000KT 6000 SCT018 26/18 Q1012 NOSIG
Conditions at: VOMD (MADURAI , IN) observed 2200 UTC 17 March 2019
Temperature: 26.0°C (79°F)
Dewpoint: 18.0°C (64°F) [RH = 61%]
Pressure (altimeter): 29.88 inches Hg (1012.0 mb)
Winds: calm
Visibility: 4 miles ( 6 km)
Ceiling: at least 12,000 feet AGL
Clouds: scattered clouds at 1800 feet AGL
Weather: no significant weather observed at this time

METAR text: VOMD 172100Z 00000KT 6000 SCT018 SCT100 26/18 Q1013 NOSIG
Conditions at: VOMD (MADURAI , IN) observed 2100 UTC 17 March 2019
Temperature: 26.0°C (79°F)
Dewpoint: 18.0°C (64°F) [RH = 61%]
Pressure (altimeter): 29.91 inches Hg (1013.0 mb)
Winds: calm
Visibility: 4 miles ( 6 km)
Ceiling: at least 12,000 feet AGL
Clouds: scattered clouds at 1800 feet AGL
scattered clouds at 10000 feet AGL
Weather: no significant weather observed at this time

METAR text: VOMD 172000Z 00000KT 6000 SCT018 SCT100 27/18 Q1013 NOSIG
Conditions at: VOMD (MADURAI , IN) observed 2000 UTC 17 March 2019
Temperature: 27.0°C (81°F)
Dewpoint: 18.0°C (64°F) [RH = 58%]
Pressure (altimeter): 29.91 inches Hg (1013.0 mb)
Winds: calm
Visibility: 4 miles ( 6 km)
Ceiling: at least 12,000 feet AGL
Clouds: scattered clouds at 1800 feet AGL
scattered clouds at 10000 feet AGL
Weather: no significant weather observed at this time

METAR text: VOMD 171900Z 00000KT 6000 SCT018 SCT100 27/18 Q1014 NOSIG
Conditions at: VOMD (MADURAI , IN) observed 1900 UTC 17 March 2019
Temperature: 27.0°C (81°F)
Dewpoint: 18.0°C (64°F) [RH = 58%]
Pressure (altimeter): 29.94 inches Hg (1014.0 mb)
Winds: calm
Visibility: 4 miles ( 6 km)
Ceiling: at least 12,000 feet AGL
Clouds: scattered clouds at 1800 feet AGL
scattered clouds at 10000 feet AGL
Weather: no significant weather observed at this time

METAR text: VOMD 171800Z 09003KT 6000 SCT018 SCT100 28/17 Q1014 NOSIG
Conditions at: VOMD (MADURAI , IN) observed 1800 UTC 17 March 2019
Temperature: 28.0°C (82°F)
Dewpoint: 17.0°C (63°F) [RH = 51%]
Pressure (altimeter): 29.94 inches Hg (1014.0 mb)
Winds: from the E (90 degrees) at 3 MPH (3 knots; 1.5 m/s)
Visibility: 4 miles ( 6 km)
Ceiling: at least 12,000 feet AGL
Clouds: scattered clouds at 1800 feet AGL
scattered clouds at 10000 feet AGL
Weather: no significant weather observed at this time

Forecast for: VOMD (MADURAI , IN)
Text: TAF VOMD 190500Z 1906/2012 10010KT 6000 FEW018 SCT100
Forecast period: 0600 to 1800 UTC 19 March 2019
Forecast type: FROM: standard forecast or significant change
Winds: from the E (100 degrees) at 12 MPH (10 knots; 5.1 m/s)
Visibility: 4 miles (6 km)
Ceiling: at least 12,000 feet AGL
Clouds: few clouds at 1800 feet AGL
scattered clouds at 10000 feet AGL
Weather: no significant weather forecast for this period
Text: BECMG 1918/1919 00000KT
Forecast period: 1800 to 2100 UTC 19 March 2019
Forecast type: BECOMING: Conditions expected to become as follows by 1900 UTC 19 March 2019
Winds: calm
Visibility: 4 miles (6 km)
Ceiling: at least 12,000 feet AGL
Clouds: few clouds at 1800 feet AGL
scattered clouds at 10000 feet AGL
Weather: no significant weather forecast for this period
Text: BECMG 1921/1922 4000 HZ
Forecast period: 2100 UTC 19 March 2019 to 0400 UTC 20 March 2019
Forecast type: BECOMING: Conditions expected to become as follows by 2200 UTC 19 March 2019
Winds: calm
Visibility: 2.49 miles (4.01 km)
Ceiling: at least 12,000 feet AGL
Clouds: few clouds at 1800 feet AGL
scattered clouds at 10000 feet AGL
Weather: HZ  (haze)
Text: BECMG 2004/2006 10010KT 6000
Forecast period: 0400 to 1200 UTC 20 March 2019
Forecast type: BECOMING: Conditions expected to become as follows by 0600 UTC 20 March 2019
Winds: from the E (100 degrees) at 12 MPH (10 knots; 5.1 m/s)
Visibility: 4 miles (6 km)
Ceiling: at least 12,000 feet AGL
Clouds: few clouds at 1800 feet AGL
scattered clouds at 10000 feet AGL
Weather: HZ  (haze)